sensor_id;sensor_type;location;lat;lon;timestamp;pressure;altitude;pressure_sealevel;temperature;humidity
26719;BME280;14326;50.794;6.060;2022-10-31T00:01:28;100117.03;;;15.04;100.00
26719;BME280;14326;50.794;6.060;2022-10-31T00:03:56;100120.63;;;15.03;100.00
26719;BME280;14326;50.794;6.060;2022-10-31T00:06:26;100118.84;;;14.99;100.00
26719;BME280;14326;50.794;6.060;2022-10-31T00:08:54;100123.31;;;15.00;100.00
26719;BME280;14326;50.794;6.060;2022-10-31T00:11:26;100127.75;;;14.98;100.00
26719;BME280;14326;50.794;6.060;2022-10-31T00:13:58;100117.06;;;14.98;100.00
26719;BME280;14326;50.794;6.060;2022-10-31T00:16:30;100116.16;;;14.93;100.00
26719;BME280;14326;50.794;6.060;2022-10-31T00:18:59;100125.09;;;14.93;100.00
26719;BME280;14326;50.794;6.060;2022-10-31T00:21:27;100117.06;;;14.90;100.00
26719;BME280;14326;50.794;6.060;2022-10-31T00:23:54;100115.25;;;14.85;100.00
26719;BME280;14326;50.794;6.060;2022-10-31T00:26:23;100115.28;;;14.83;100.00
26719;BME280;14326;50.794;6.060;2022-10-31T00:28:50;100117.06;;;14.81;100.00
26719;BME280;14326;50.794;6.060;2022-10-31T00:31:18;100109.94;;;14.77;100.00
26719;BME280;14326;50.794;6.060;2022-10-31T00:33:47;100121.53;;;14.76;100.00
26719;BME280;14326;50.794;6.060;2022-10-31T00:36:17;100113.47;;;14.67;100.00
26719;BME280;14326;50.794;6.060;2022-10-31T00:38:48;100107.25;;;14.60;100.00
26719;BME280;14326;50.794;6.060;2022-10-31T00:41:17;100103.66;;;14.58;100.00
26719;BME280;14326;50.794;6.060;2022-10-31T00:43:44;100106.34;;;14.54;100.00
26719;BME280;14326;50.794;6.060;2022-10-31T00:46:11;100108.09;;;14.50;100.00
26719;BME280;14326;50.794;6.060;2022-10-31T00:48:41;100098.31;;;14.46;100.00
26719;BME280;14326;50.794;6.060;2022-10-31T00:51:33;100097.41;;;14.44;100.00
26719;BME280;14326;50.794;6.060;2022-10-31T00:54:10;100091.16;;;14.45;100.00
26719;BME280;14326;50.794;6.060;2022-10-31T00:56:37;100090.25;;;14.43;100.00
26719;BME280;14326;50.794;6.060;2022-10-31T00:59:19;100089.38;;;14.41;100.00
26719;BME280;14326;50.794;6.060;2022-10-31T01:01:46;100086.69;;;14.41;100.00
26719;BME280;14326;50.794;6.060;2022-10-31T01:04:12;100083.13;;;14.41;100.00
26719;BME280;14326;50.794;6.060;2022-10-31T01:06:41;100082.22;;;14.40;100.00
26719;BME280;14326;50.794;6.060;2022-10-31T01:09:07;100081.28;;;14.33;100.00
26719;BME280;14326;50.794;6.060;2022-10-31T01:11:34;100084.88;;;14.29;100.00
26719;BME280;14326;50.794;6.060;2022-10-31T01:14:02;100079.50;;;14.26;100.00
26719;BME280;14326;50.794;6.060;2022-10-31T01:16:28;100083.94;;;14.20;100.00
26719;BME280;14326;50.794;6.060;2022-10-31T01:18:55;100089.31;;;14.23;100.00
26719;BME280;14326;50.794;6.060;2022-10-31T01:21:24;100091.09;;;14.21;100.00
26719;BME280;14326;50.794;6.060;2022-10-31T01:23:53;100092.88;;;14.13;100.00
26719;BME280;14326;50.794;6.060;2022-10-31T01:26:22;100099.09;;;14.06;100.00
26719;BME280;14326;50.794;6.060;2022-10-31T01:28:51;100099.06;;;14.00;100.00
26719;BME280;14326;50.794;6.060;2022-10-31T01:31:19;100091.03;;;13.95;100.00
26719;BME280;14326;50.794;6.060;2022-10-31T01:33:47;100091.94;;;13.96;100.00
26719;BME280;14326;50.794;6.060;2022-10-31T01:36:18;100094.56;;;13.83;100.00
26719;BME280;14326;50.794;6.060;2022-10-31T01:38:46;100102.53;;;13.79;100.00
26719;BME280;14326;50.794;6.060;2022-10-31T01:41:16;100099.88;;;13.79;100.00
26719;BME280;14326;50.794;6.060;2022-10-31T01:43:45;100092.75;;;13.76;100.00
26719;BME280;14326;50.794;6.060;2022-10-31T01:46:13;100100.72;;;13.73;100.00
26719;BME280;14326;50.794;6.060;2022-10-31T01:48:41;100093.63;;;13.72;100.00
26719;BME280;14326;50.794;6.060;2022-10-31T01:51:08;100100.75;;;13.75;100.00
26719;BME280;14326;50.794;6.060;2022-10-31T01:53:38;100102.50;;;13.73;100.00
26719;BME280;14326;50.794;6.060;2022-10-31T01:56:06;100095.44;;;13.78;100.00
26719;BME280;14326;50.794;6.060;2022-10-31T01:58:35;100098.06;;;13.70;100.00
26719;BME280;14326;50.794;6.060;2022-10-31T02:01:03;100091.84;;;13.71;100.00
26719;BME280;14326;50.794;6.060;2022-10-31T02:03:30;100100.72;;;13.69;100.00
26719;BME280;14326;50.794;6.060;2022-10-31T02:05:58;100097.19;;;13.71;100.00
26719;BME280;14326;50.794;6.060;2022-10-31T02:08:27;100102.53;;;13.74;100.00
26719;BME280;14326;50.794;6.060;2022-10-31T02:10:55;100097.22;;;13.83;100.00
26719;BME280;14326;50.794;6.060;2022-10-31T02:13:22;100086.53;;;13.85;100.00
26719;BME280;14326;50.794;6.060;2022-10-31T02:15:52;100080.31;;;13.87;100.00
26719;BME280;14326;50.794;6.060;2022-10-31T02:18:20;100082.06;;;13.81;100.00
26719;BME280;14326;50.794;6.060;2022-10-31T02:20:55;100085.63;;;13.84;100.00
26719;BME280;14326;50.794;6.060;2022-10-31T02:26:43;100088.34;;;13.93;100.00
26719;BME280;14326;50.794;6.060;2022-10-31T02:29:27;100084.75;;;13.88;100.00
26719;BME280;14326;50.794;6.060;2022-10-31T02:32:02;100080.28;;;13.86;100.00
26719;BME280;14326;50.794;6.060;2022-10-31T02:34:36;100075.84;;;13.86;100.00
26719;BME280;14326;50.794;6.060;2022-10-31T02:37:10;100069.59;;;13.87;100.00
26719;BME280;14326;50.794;6.060;2022-10-31T02:39:46;100067.84;;;13.89;100.00
26719;BME280;14326;50.794;6.060;2022-10-31T02:42:18;100069.63;;;13.92;100.00
26719;BME280;14326;50.794;6.060;2022-10-31T02:44:52;100075.00;;;14.00;100.00
26719;BME280;14326;50.794;6.060;2022-10-31T02:47:26;100073.22;;;14.02;100.00
26719;BME280;14326;50.794;6.060;2022-10-31T02:49:57;100072.31;;;14.03;100.00
26719;BME280;14326;50.794;6.060;2022-10-31T02:52:27;100061.59;;;14.03;100.00
26719;BME280;14326;50.794;6.060;2022-10-31T02:54:54;100066.94;;;13.98;100.00
26719;BME280;14326;50.794;6.060;2022-10-31T02:57:24;100071.44;;;14.01;100.00
26719;BME280;14326;50.794;6.060;2022-10-31T02:59:53;100063.41;;;14.01;100.00
26719;BME280;14326;50.794;6.060;2022-10-31T03:02:31;100064.31;;;14.06;100.00
26719;BME280;14326;50.794;6.060;2022-10-31T03:05:11;100063.41;;;14.10;100.00
26719;BME280;14326;50.794;6.060;2022-10-31T03:07:49;100058.97;;;14.13;100.00
26719;BME280;14326;50.794;6.060;2022-10-31T03:10:21;100061.63;;;14.06;100.00
26719;BME280;14326;50.794;6.060;2022-10-31T03:12:59;100052.72;;;14.10;100.00
26719;BME280;14326;50.794;6.060;2022-10-31T03:15:31;100053.59;;;14.06;100.00
26719;BME280;14326;50.794;6.060;2022-10-31T03:18:03;100050.91;;;14.04;100.00
26719;BME280;14326;50.794;6.060;2022-10-31T03:20:34;100049.13;;;13.99;100.00
26719;BME280;14326;50.794;6.060;2022-10-31T03:23:05;100044.66;;;13.94;100.00
26719;BME280;14326;50.794;6.060;2022-10-31T03:25:35;100037.53;;;13.92;100.00
26719;BME280;14326;50.794;6.060;2022-10-31T03:28:09;100045.56;;;13.93;100.00
26719;BME280;14326;50.794;6.060;2022-10-31T03:30:47;100055.34;;;13.87;100.00
26719;BME280;14326;50.794;6.060;2022-10-31T03:33:24;100053.50;;;13.78;100.00
26719;BME280;14326;50.794;6.060;2022-10-31T03:35:57;100051.72;;;13.73;100.00
26719;BME280;14326;50.794;6.060;2022-10-31T03:38:48;100055.25;;;13.67;100.00
26719;BME280;14326;50.794;6.060;2022-10-31T03:41:35;100052.56;;;13.61;100.00
26719;BME280;14326;50.794;6.060;2022-10-31T03:44:11;100064.13;;;13.52;100.00
26719;BME280;14326;50.794;6.060;2022-10-31T03:46:39;100057.00;;;13.51;100.00
26719;BME280;14326;50.794;6.060;2022-10-31T03:49:08;100052.50;;;13.41;100.00
26719;BME280;14326;50.794;6.060;2022-10-31T03:51:42;100055.16;;;13.38;100.00
26719;BME280;14326;50.794;6.060;2022-10-31T03:54:24;100046.22;;;13.38;100.00
26719;BME280;14326;50.794;6.060;2022-10-31T03:57:00;100054.25;;;13.36;100.00
26719;BME280;14326;50.794;6.060;2022-10-31T03:59:46;100051.56;;;13.35;100.00
26719;BME280;14326;50.794;6.060;2022-10-31T04:02:27;100049.78;;;13.34;100.00
26719;BME280;14326;50.794;6.060;2022-10-31T04:05:00;100047.09;;;13.29;100.00
26719;BME280;14326;50.794;6.060;2022-10-31T04:07:31;100045.28;;;13.27;100.00
26719;BME280;14326;50.794;6.060;2022-10-31T04:10:01;100045.25;;;13.16;100.00
26719;BME280;14326;50.794;6.060;2022-10-31T04:12:29;100049.63;;;13.06;100.00
26719;BME280;14326;50.794;6.060;2022-10-31T04:14:57;100051.38;;;13.04;100.00
26719;BME280;14326;50.794;6.060;2022-10-31T04:17:27;100052.25;;;13.03;100.00
26719;BME280;14326;50.794;6.060;2022-10-31T04:20:00;100047.81;;;13.01;100.00
26719;BME280;14326;50.794;6.060;2022-10-31T04:22:26;100050.44;;;12.99;100.00
26719;BME280;14326;50.794;6.060;2022-10-31T04:24:53;100044.16;;;12.91;100.00
26719;BME280;14326;50.794;6.060;2022-10-31T04:27:19;100046.84;;;12.93;100.00
26719;BME280;14326;50.794;6.060;2022-10-31T04:29:46;100032.59;;;12.89;100.00
26719;BME280;14326;50.794;6.060;2022-10-31T04:32:12;100031.66;;;12.83;100.00
26719;BME280;14326;50.794;6.060;2022-10-31T04:34:39;100028.06;;;12.79;100.00
26719;BME280;14326;50.794;6.060;2022-10-31T04:37:07;100025.41;;;12.81;100.00
26719;BME280;14326;50.794;6.060;2022-10-31T04:39:34;100020.09;;;12.85;100.00
26719;BME280;14326;50.794;6.060;2022-10-31T04:42:00;100018.28;;;12.80;100.00
26719;BME280;14326;50.794;6.060;2022-10-31T04:44:27;100017.38;;;12.76;100.00
26719;BME280;14326;50.794;6.060;2022-10-31T04:46:53;100026.22;;;12.69;100.00
26719;BME280;14326;50.794;6.060;2022-10-31T04:49:20;100033.31;;;12.65;100.00
26719;BME280;14326;50.794;6.060;2022-10-31T04:51:46;100028.06;;;12.76;100.00
26719;BME280;14326;50.794;6.060;2022-10-31T04:54:14;100030.69;;;12.75;100.00
26719;BME280;14326;50.794;6.060;2022-10-31T04:56:41;100034.25;;;12.70;100.00
26719;BME280;14326;50.794;6.060;2022-10-31T04:59:08;100020.84;;;12.67;100.00
26719;BME280;14326;50.794;6.060;2022-10-31T05:01:34;100019.94;;;12.62;100.00
26719;BME280;14326;50.794;6.060;2022-10-31T05:04:01;100024.41;;;12.65;100.00
26719;BME280;14326;50.794;6.060;2022-10-31T05:06:28;100027.97;;;12.65;100.00
26719;BME280;14326;50.794;6.060;2022-10-31T05:08:54;100037.72;;;12.59;100.00
26719;BME280;14326;50.794;6.060;2022-10-31T05:11:22;100036.78;;;12.57;100.00
26719;BME280;14326;50.794;6.060;2022-10-31T05:13:49;100034.13;;;12.57;100.00
26719;BME280;14326;50.794;6.060;2022-10-31T05:16:18;100042.13;;;12.55;100.00
26719;BME280;14326;50.794;6.060;2022-10-31T05:18:46;100027.03;;;12.57;100.00
26719;BME280;14326;50.794;6.060;2022-10-31T05:21:15;100031.41;;;12.51;100.00
26719;BME280;14326;50.794;6.060;2022-10-31T05:23:41;100026.06;;;12.51;100.00
26719;BME280;14326;50.794;6.060;2022-10-31T05:26:08;100019.84;;;12.47;100.00
26719;BME280;14326;50.794;6.060;2022-10-31T05:28:36;100026.03;;;12.46;100.00
26719;BME280;14326;50.794;6.060;2022-10-31T05:31:03;100016.25;;;12.45;100.00
26719;BME280;14326;50.794;6.060;2022-10-31T05:33:30;100012.69;;;12.42;100.00
26719;BME280;14326;50.794;6.060;2022-10-31T05:35:56;100007.28;;;12.36;100.00
26719;BME280;14326;50.794;6.060;2022-10-31T05:38:43;100002.78;;;12.31;100.00
26719;BME280;14326;50.794;6.060;2022-10-31T05:41:49;100005.47;;;12.30;100.00
26719;BME280;14326;50.794;6.060;2022-10-31T05:44:45;100006.34;;;12.32;100.00
26719;BME280;14326;50.794;6.060;2022-10-31T05:47:35;100004.59;;;12.34;100.00
26719;BME280;14326;50.794;6.060;2022-10-31T05:50:08;100013.50;;;12.38;100.00
26719;BME280;14326;50.794;6.060;2022-10-31T05:52:53;99997.50;;;12.35;100.00
26719;BME280;14326;50.794;6.060;2022-10-31T05:55:44;99999.25;;;12.31;100.00
26719;BME280;14326;50.794;6.060;2022-10-31T05:58:53;99998.34;;;12.30;100.00
26719;BME280;14326;50.794;6.060;2022-10-31T06:01:36;99993.91;;;12.29;100.00
26719;BME280;14326;50.794;6.060;2022-10-31T06:04:09;99991.25;;;12.31;100.00
26719;BME280;14326;50.794;6.060;2022-10-31T06:06:52;99977.91;;;12.31;100.00
26719;BME280;14326;50.794;6.060;2022-10-31T06:09:21;99976.97;;;12.27;100.00
26719;BME280;14326;50.794;6.060;2022-10-31T06:11:57;99977.00;;;12.29;100.00
26719;BME280;14326;50.794;6.060;2022-10-31T06:14:35;99976.09;;;12.28;100.00
26719;BME280;14326;50.794;6.060;2022-10-31T06:20:07;99977.03;;;12.30;100.00
26719;BME280;14326;50.794;6.060;2022-10-31T06:22:35;99980.53;;;12.28;100.00
26719;BME280;14326;50.794;6.060;2022-10-31T06:25:02;99972.63;;;12.36;100.00
26719;BME280;14326;50.794;6.060;2022-10-31T06:27:29;99975.22;;;12.29;100.00
26719;BME280;14326;50.794;6.060;2022-10-31T06:29:56;99974.38;;;12.34;100.00
26719;BME280;14326;50.794;6.060;2022-10-31T06:32:22;99985.81;;;12.19;100.00
26719;BME280;14326;50.794;6.060;2022-10-31T06:34:49;99988.41;;;12.14;100.00
26719;BME280;14326;50.794;6.060;2022-10-31T06:37:17;99979.50;;;12.09;100.00
26719;BME280;14326;50.794;6.060;2022-10-31T06:39:44;99983.09;;;12.13;100.00
26719;BME280;14326;50.794;6.060;2022-10-31T06:42:10;99982.22;;;12.15;100.00
26719;BME280;14326;50.794;6.060;2022-10-31T06:44:37;99980.47;;;12.19;100.00
26719;BME280;14326;50.794;6.060;2022-10-31T06:47:05;99982.28;;;12.26;100.00
26719;BME280;14326;50.794;6.060;2022-10-31T06:49:32;99983.22;;;12.29;100.00
26719;BME280;14326;50.794;6.060;2022-10-31T06:51:58;99984.16;;;12.35;100.00
26719;BME280;14326;50.794;6.060;2022-10-31T06:54:26;99984.22;;;12.41;100.00
26719;BME280;14326;50.794;6.060;2022-10-31T06:56:53;99986.88;;;12.41;100.00
26719;BME280;14326;50.794;6.060;2022-10-31T06:59:20;99989.59;;;12.47;100.00
26719;BME280;14326;50.794;6.060;2022-10-31T07:01:46;99998.47;;;12.46;100.00
26719;BME280;14326;50.794;6.060;2022-10-31T07:04:13;99996.66;;;12.43;100.00
26719;BME280;14326;50.794;6.060;2022-10-31T07:06:39;99987.78;;;12.44;100.00
26719;BME280;14326;50.794;6.060;2022-10-31T07:09:06;99988.69;;;12.46;100.00
26719;BME280;14326;50.794;6.060;2022-10-31T07:11:34;99977.13;;;12.49;100.00
26719;BME280;14326;50.794;6.060;2022-10-31T07:14:01;99978.03;;;12.51;100.00
26719;BME280;14326;50.794;6.060;2022-10-31T07:16:27;99974.50;;;12.55;100.00
26719;BME280;14326;50.794;6.060;2022-10-31T07:18:54;99971.00;;;12.59;100.00
26719;BME280;14326;50.794;6.060;2022-10-31T07:21:20;99976.34;;;12.62;100.00
26719;BME280;14326;50.794;6.060;2022-10-31T07:23:48;99978.16;;;12.67;100.00
26719;BME280;14326;50.794;6.060;2022-10-31T07:26:15;99976.41;;;12.74;100.00
26719;BME280;14326;50.794;6.060;2022-10-31T07:28:43;99983.59;;;12.81;100.00
26719;BME280;14326;50.794;6.060;2022-10-31T07:31:09;99991.66;;;12.89;100.00
26719;BME280;14326;50.794;6.060;2022-10-31T07:33:36;99996.13;;;12.94;100.00
26719;BME280;14326;50.794;6.060;2022-10-31T07:36:03;99986.38;;;13.01;100.00
26719;BME280;14326;50.794;6.060;2022-10-31T07:38:30;99993.50;;;13.05;100.00
26719;BME280;14326;50.794;6.060;2022-10-31T07:40:58;99990.84;;;13.09;100.00
26719;BME280;14326;50.794;6.060;2022-10-31T07:43:25;99990.03;;;13.17;100.00
26719;BME280;14326;50.794;6.060;2022-10-31T07:45:53;99990.06;;;13.21;100.00
26719;BME280;14326;50.794;6.060;2022-10-31T07:48:21;99991.84;;;13.22;100.00
26719;BME280;14326;50.794;6.060;2022-10-31T07:50:48;99997.19;;;13.27;100.00
26719;BME280;14326;50.794;6.060;2022-10-31T07:53:15;99997.22;;;13.31;100.00
26719;BME280;14326;50.794;6.060;2022-10-31T07:55:42;99998.13;;;13.35;100.00
26719;BME280;14326;50.794;6.060;2022-10-31T07:58:11;99995.50;;;13.42;100.00
26719;BME280;14326;50.794;6.060;2022-10-31T08:00:40;99998.19;;;13.50;100.00
26719;BME280;14326;50.794;6.060;2022-10-31T08:03:10;99991.06;;;13.55;100.00
26719;BME280;14326;50.794;6.060;2022-10-31T08:05:37;99992.88;;;13.58;100.00
26719;BME280;14326;50.794;6.060;2022-10-31T08:08:05;99992.88;;;13.59;100.00
26719;BME280;14326;50.794;6.060;2022-10-31T08:10:33;99988.44;;;13.64;100.00
26719;BME280;14326;50.794;6.060;2022-10-31T08:13:01;99991.13;;;13.69;100.00
26719;BME280;14326;50.794;6.060;2022-10-31T08:15:28;99985.78;;;13.73;100.00
26719;BME280;14326;50.794;6.060;2022-10-31T08:17:55;99987.56;;;13.80;100.00
26719;BME280;14326;50.794;6.060;2022-10-31T08:20:23;99984.00;;;13.84;100.00
26719;BME280;14326;50.794;6.060;2022-10-31T08:22:54;99989.38;;;13.90;100.00
26719;BME280;14326;50.794;6.060;2022-10-31T08:25:21;99976.03;;;13.93;100.00
26719;BME280;14326;50.794;6.060;2022-10-31T08:27:49;99973.34;;;14.00;100.00
26719;BME280;14326;50.794;6.060;2022-10-31T08:30:17;99968.00;;;14.06;100.00
26719;BME280;14326;50.794;6.060;2022-10-31T08:32:44;99965.34;;;14.13;100.00
26719;BME280;14326;50.794;6.060;2022-10-31T08:35:10;99964.44;;;14.22;100.00
26719;BME280;14326;50.794;6.060;2022-10-31T08:37:38;99970.69;;;14.33;100.00
26719;BME280;14326;50.794;6.060;2022-10-31T08:40:06;99959.09;;;14.43;100.00
26719;BME280;14326;50.794;6.060;2022-10-31T08:42:33;99958.22;;;14.53;100.00
26719;BME280;14326;50.794;6.060;2022-10-31T08:44:59;99956.41;;;14.64;100.00
26719;BME280;14326;50.794;6.060;2022-10-31T08:47:26;99944.81;;;14.71;100.00
26719;BME280;14326;50.794;6.060;2022-10-31T08:49:53;99938.53;;;14.83;100.00
26719;BME280;14326;50.794;6.060;2022-10-31T08:52:22;99937.59;;;14.95;100.00
26719;BME280;14326;50.794;6.060;2022-10-31T08:54:50;99932.19;;;15.04;100.00
26719;BME280;14326;50.794;6.060;2022-10-31T08:57:17;99928.56;;;15.14;100.00
26719;BME280;14326;50.794;6.060;2022-10-31T08:59:43;99917.84;;;15.17;100.00
26719;BME280;14326;50.794;6.060;2022-10-31T09:02:10;99916.91;;;15.24;100.00
26719;BME280;14326;50.794;6.060;2022-10-31T09:04:37;99908.81;;;15.32;100.00
26719;BME280;14326;50.794;6.060;2022-10-31T09:07:03;99910.56;;;15.42;100.00
26719;BME280;14326;50.794;6.060;2022-10-31T09:09:30;99912.31;;;15.49;100.00
26719;BME280;14326;50.794;6.060;2022-10-31T09:11:58;99906.06;;;15.54;100.00
26719;BME280;14326;50.794;6.060;2022-10-31T09:14:24;99903.38;;;15.54;100.00
26719;BME280;14326;50.794;6.060;2022-10-31T09:16:51;99903.34;;;15.57;100.00
26719;BME280;14326;50.794;6.060;2022-10-31T09:19:18;99904.19;;;15.61;100.00
26719;BME280;14326;50.794;6.060;2022-10-31T09:21:45;99897.06;;;15.65;100.00
26719;BME280;14326;50.794;6.060;2022-10-31T09:24:11;99889.84;;;15.71;100.00
26719;BME280;14326;50.794;6.060;2022-10-31T09:26:38;99894.28;;;15.77;100.00
26719;BME280;14326;50.794;6.060;2022-10-31T09:29:06;99881.72;;;15.82;100.00
26719;BME280;14326;50.794;6.060;2022-10-31T09:31:34;99886.13;;;15.89;100.00
26719;BME280;14326;50.794;6.060;2022-10-31T09:34:01;99880.72;;;15.93;100.00
26719;BME280;14326;50.794;6.060;2022-10-31T09:36:28;99868.16;;;16.00;100.00
26719;BME280;14326;50.794;6.060;2022-10-31T09:38:55;99868.09;;;16.08;100.00
26719;BME280;14326;50.794;6.060;2022-10-31T09:41:26;99861.78;;;16.10;100.00
26719;BME280;14326;50.794;6.060;2022-10-31T09:44:02;99860.84;;;16.16;100.00
26719;BME280;14326;50.794;6.060;2022-10-31T09:46:44;99854.50;;;16.24;100.00
26719;BME280;14326;50.794;6.060;2022-10-31T09:49:33;99854.44;;;16.30;100.00
26719;BME280;14326;50.794;6.060;2022-10-31T09:52:12;99839.13;;;16.38;100.00
26719;BME280;14326;50.794;6.060;2022-10-31T09:54:45;99830.09;;;16.47;100.00
26719;BME280;14326;50.794;6.060;2022-10-31T09:57:14;99820.19;;;16.51;99.89
26719;BME280;14326;50.794;6.060;2022-10-31T09:59:43;99820.19;;;16.54;98.93
26719;BME280;14326;50.794;6.060;2022-10-31T10:02:17;99811.19;;;16.61;98.93
26719;BME280;14326;50.794;6.060;2022-10-31T10:04:55;99818.28;;;16.65;97.50
26719;BME280;14326;50.794;6.060;2022-10-31T10:07:48;99843.31;;;16.68;97.00
26719;BME280;14326;50.794;6.060;2022-10-31T10:10:57;99857.53;;;16.78;97.83
26719;BME280;14326;50.794;6.060;2022-10-31T10:14:16;99859.19;;;16.88;97.41
26719;BME280;14326;50.794;6.060;2022-10-31T10:17:28;99851.81;;;17.02;96.93
26719;BME280;14326;50.794;6.060;2022-10-31T10:20:38;99854.41;;;17.10;96.12
26719;BME280;14326;50.794;6.060;2022-10-31T10:23:36;99855.19;;;17.19;95.91
26719;BME280;14326;50.794;6.060;2022-10-31T10:26:16;99853.28;;;17.28;95.42
26719;BME280;14326;50.794;6.060;2022-10-31T10:29:38;99849.59;;;17.33;94.13
26719;BME280;14326;50.794;6.060;2022-10-31T10:32:44;99847.72;;;17.38;92.68
26719;BME280;14326;50.794;6.060;2022-10-31T10:35:33;99849.41;;;17.45;92.01
26719;BME280;14326;50.794;6.060;2022-10-31T10:38:03;99857.38;;;17.54;91.76
26719;BME280;14326;50.794;6.060;2022-10-31T10:40:37;99861.66;;;17.68;91.23
26719;BME280;14326;50.794;6.060;2022-10-31T10:43:28;99842.72;;;17.74;89.98
26719;BME280;14326;50.794;6.060;2022-10-31T10:46:18;99830.06;;;17.80;90.29
26719;BME280;14326;50.794;6.060;2022-10-31T10:49:13;99838.03;;;17.86;88.32
26719;BME280;14326;50.794;6.060;2022-10-31T10:51:44;99828.13;;;17.90;88.30
26719;BME280;14326;50.794;6.060;2022-10-31T10:54:45;99829.75;;;17.98;88.27
26719;BME280;14326;50.794;6.060;2022-10-31T10:57:48;99822.47;;;18.05;87.52
26719;BME280;14326;50.794;6.060;2022-10-31T11:00:21;99805.31;;;18.11;86.40
26719;BME280;14326;50.794;6.060;2022-10-31T11:02:48;99800.72;;;18.16;87.07
26719;BME280;14326;50.794;6.060;2022-10-31T11:05:23;99782.63;;;18.24;87.33
26719;BME280;14326;50.794;6.060;2022-10-31T11:07:54;99786.19;;;18.26;86.47
26719;BME280;14326;50.794;6.060;2022-10-31T11:10:22;99779.75;;;18.33;86.48
26719;BME280;14326;50.794;6.060;2022-10-31T11:13:05;99772.44;;;18.39;85.13
26719;BME280;14326;50.794;6.060;2022-10-31T11:15:49;99771.50;;;18.42;85.36
26719;BME280;14326;50.794;6.060;2022-10-31T11:18:20;99764.22;;;18.46;84.03
26719;BME280;14326;50.794;6.060;2022-10-31T11:20:54;99763.22;;;18.51;83.92
26719;BME280;14326;50.794;6.060;2022-10-31T11:23:23;99759.53;;;18.57;84.58
26719;BME280;14326;50.794;6.060;2022-10-31T11:25:53;99743.28;;;18.61;84.15
26719;BME280;14326;50.794;6.060;2022-10-31T11:28:21;99750.31;;;18.68;84.01
26719;BME280;14326;50.794;6.060;2022-10-31T11:30:51;99740.38;;;18.72;84.34
26719;BME280;14326;50.794;6.060;2022-10-31T11:33:29;99734.75;;;18.81;84.17
26719;BME280;14326;50.794;6.060;2022-10-31T11:36:01;99728.28;;;18.90;82.82
26719;BME280;14326;50.794;6.060;2022-10-31T11:38:39;99732.59;;;18.97;82.32
26719;BME280;14326;50.794;6.060;2022-10-31T11:41:11;99724.44;;;19.00;81.24
26719;BME280;14326;50.794;6.060;2022-10-31T11:43:46;99719.91;;;19.02;82.00
26719;BME280;14326;50.794;6.060;2022-10-31T11:46:19;99711.63;;;19.09;82.07
26719;BME280;14326;50.794;6.060;2022-10-31T11:48:48;99706.16;;;19.14;81.18
26719;BME280;14326;50.794;6.060;2022-10-31T11:51:22;99704.22;;;19.19;80.47
26719;BME280;14326;50.794;6.060;2022-10-31T11:53:53;99705.84;;;19.26;81.33
26719;BME280;14326;50.794;6.060;2022-10-31T11:56:21;99700.25;;;19.34;79.83
26719;BME280;14326;50.794;6.060;2022-10-31T11:58:55;99683.78;;;19.46;79.77
26719;BME280;14326;50.794;6.060;2022-10-31T12:01:24;99671.97;;;19.50;80.53
26719;BME280;14326;50.794;6.060;2022-10-31T12:04:00;99673.66;;;19.55;79.91
26719;BME280;14326;50.794;6.060;2022-10-31T12:09:40;99650.78;;;19.69;78.03
26719;BME280;14326;50.794;6.060;2022-10-31T12:15:33;99639.81;;;19.75;79.54
26719;BME280;14326;50.794;6.060;2022-10-31T12:21:17;99635.41;;;19.72;79.56
26719;BME280;14326;50.794;6.060;2022-10-31T12:24:05;99635.31;;;19.75;79.73
26719;BME280;14326;50.794;6.060;2022-10-31T12:26:40;99635.16;;;19.80;80.71
26719;BME280;14326;50.794;6.060;2022-10-31T12:29:19;99630.63;;;19.82;80.88
26719;BME280;14326;50.794;6.060;2022-10-31T12:31:56;99616.09;;;19.86;79.26
26719;BME280;14326;50.794;6.060;2022-10-31T12:37:42;99608.72;;;19.92;78.49
26719;BME280;14326;50.794;6.060;2022-10-31T12:40:32;99613.06;;;19.98;78.01
26719;BME280;14326;50.794;6.060;2022-10-31T12:43:15;99621.03;;;20.02;78.37
26719;BME280;14326;50.794;6.060;2022-10-31T12:45:52;99614.69;;;20.03;71.50
26719;BME280;14326;50.794;6.060;2022-10-31T12:48:52;99602.72;;;20.14;70.35
26719;BME280;14326;50.794;6.060;2022-10-31T12:51:28;99593.22;;;20.28;67.18
26719;BME280;14326;50.794;6.060;2022-10-31T12:54:12;99591.72;;;20.49;64.26
26719;BME280;14326;50.794;6.060;2022-10-31T12:56:52;99579.56;;;20.62;62.82
26719;BME280;14326;50.794;6.060;2022-10-31T12:59:29;99583.09;;;20.66;62.43
26719;BME280;14326;50.794;6.060;2022-10-31T13:02:00;99571.22;;;20.70;63.38
26719;BME280;14326;50.794;6.060;2022-10-31T13:04:38;99560.53;;;20.67;64.40
26719;BME280;14326;50.794;6.060;2022-10-31T13:07:11;99555.16;;;20.65;64.81
26719;BME280;14326;50.794;6.060;2022-10-31T13:09:43;99556.88;;;20.68;63.84
26719;BME280;14326;50.794;6.060;2022-10-31T13:12:15;99535.13;;;20.72;62.36
26719;BME280;14326;50.794;6.060;2022-10-31T13:14:46;99535.84;;;20.77;61.39
26719;BME280;14326;50.794;6.060;2022-10-31T13:17:21;99524.13;;;20.77;62.55
26719;BME280;14326;50.794;6.060;2022-10-31T13:19:50;99519.56;;;20.79;62.33
26719;BME280;14326;50.794;6.060;2022-10-31T13:22:22;99506.09;;;20.77;63.60
26719;BME280;14326;50.794;6.060;2022-10-31T13:25:01;99501.78;;;20.72;65.62
26719;BME280;14326;50.794;6.060;2022-10-31T13:27:43;99494.25;;;20.55;65.72
26719;BME280;14326;50.794;6.060;2022-10-31T13:30:15;99500.25;;;20.37;66.82
26719;BME280;14326;50.794;6.060;2022-10-31T13:32:45;99482.50;;;20.27;68.38
26719;BME280;14326;50.794;6.060;2022-10-31T13:35:18;99481.00;;;20.18;68.99